ワシントン/ダレス の空港の天気 - METARとTAF

ワシントン・ダレス国際空港 ( KIAD / IAD ) - アメリカ バージニア州ダレス
飛行場実況気象(Metar)
観測時間07/17 04:52 EDT (07/17 08:52 UTC)
風向・風速南 3m/s
視程10km以上
天気現象
少しの雲 雲底高度 2290m
全天の4割程度の雲 雲底高度 7620m
気温22.8℃
湿度96%
気圧1011.8hPa
METARKIAD 170852Z 18006KT 10SM FEW075 SCT250 23/22 A2989 RMK AO2 LTG DSNT W SLP118 T02280222 58009
過去の天気等 Google飛行場航空写真 Wunderground天気予報

過去48時間のMETAR

飛行場予報(TAF)
発表時間: 7/17 04:43 EDT (7/17 08:43 UTC)
予報対象時間: 17日5時 EDT ~ 18日8時 EDT
風向・風速南 4m/s
視程10km以上
少しの雲 雲底高度 3050m
全天の4割程度の雲 雲底高度 6100m
17日11時 EDT から
風向・風速南西 3m/s
視程10km以上
天気現象弱いしゅう雨 周辺で雷
全天の8割程度の積乱雲 雲底高度 2130m
17日16時 EDT から
風向・風速西北西 3m/s
視程10km以上
天気現象弱いしゅう雨
全天を覆う雲 雲底高度 1520m
17日20時 EDT から
風向・風速北西 3m/s
視程10km以上
全天の8割程度の雲 雲底高度 2440m
KIAD 170843Z 1709/1812 18007KT P6SM FEW100 SCT200
FM171500 23005KT P6SM -SHRA VCTS BKN070CB
FM172000 29006KT P6SM -SHRA OVC050
FM180000 32005KT P6SM BKN080